Time;durP1;ratioP1;P1;durP2;ratioP2;P2;SDS_P1;SDS_P2;PMS_P1;PMS_P2;Temp;Humidity;BMP_temperature;BMP_pressure;BME280_temperature;BME280_humidity;BME280_pressure;Samples;Min_cycle;Max_cycle;Signal;HPM_P1;HPM_P2
2023/02/19 00:01:03;;;;;;;1.77;1.65;;;20.80;81.80;;;;;;5083381;28;20198;-52
2023/02/19 00:03:29;;;;;;;3.95;1.65;;;20.80;81.80;;;;;;5076635;28;20774;-52
2023/02/19 00:05:56;;;;;;;1.52;1.35;;;20.80;81.80;;;;;;5084926;28;20215;-52
2023/02/19 00:08:23;;;;;;;4.15;1.92;;;20.80;82.60;;;;;;5088969;28;20661;-49
2023/02/19 00:10:49;;;;;;;1.63;1.52;;;20.80;81.80;;;;;;5079388;28;20626;-49
2023/02/19 00:13:16;;;;;;;1.30;1.20;;;20.80;81.80;;;;;;5081701;28;20673;-55
2023/02/19 00:15:44;;;;;;;4.43;1.50;;;20.70;81.80;;;;;;5087086;28;20202;-56
2023/02/19 00:18:11;;;;;;;1.80;1.50;;;20.70;81.80;;;;;;5075557;28;20194;-58
2023/02/19 00:20:38;;;;;;;2.13;1.92;;;20.70;81.80;;;;;;5081096;28;20206;-55
2023/02/19 00:23:04;;;;;;;4.30;1.95;;;20.70;81.80;;;;;;5083783;28;20218;-49
2023/02/19 00:25:31;;;;;;;1.73;1.58;;;20.70;81.80;;;;;;5083972;28;20701;-48
2023/02/19 00:27:58;;;;;;;1.70;1.60;;;20.70;81.90;;;;;;5082139;28;20199;-52
2023/02/19 00:30:25;;;;;;;1.65;1.52;;;20.70;81.90;;;;;;5084897;28;20194;-50
2023/02/19 00:32:54;;;;;;;1.95;1.77;;;20.70;81.90;;;;;;5088248;28;20289;-52
2023/02/19 00:35:20;;;;;;;1.58;1.48;;;20.60;81.80;;;;;;5081421;28;20545;-49
2023/02/19 00:37:47;;;;;;;1.42;1.33;;;20.60;81.80;;;;;;5090223;28;20196;-49
2023/02/19 00:40:14;;;;;;;1.80;1.70;;;20.60;81.90;;;;;;5080541;28;20205;-51
2023/02/19 00:42:41;;;;;;;1.58;1.45;;;20.60;81.90;;;;;;5095703;28;20581;-53
2023/02/19 00:45:08;;;;;;;2.17;1.40;;;20.60;81.90;;;;;;5093607;28;20232;-47
2023/02/19 00:47:35;;;;;;;1.75;1.65;;;20.60;82.60;;;;;;5096337;28;20195;-48
2023/02/19 00:50:03;;;;;;;1.40;1.30;;;20.60;81.90;;;;;;5078227;28;20199;-48
2023/02/19 00:52:30;;;;;;;1.85;1.52;;;20.60;81.90;;;;;;5096069;28;20570;-54
2023/02/19 00:54:57;;;;;;;2.03;1.63;;;20.60;81.90;;;;;;5080581;28;20206;-51
2023/02/19 00:57:23;;;;;;;1.90;1.80;;;20.60;81.90;;;;;;5101675;28;20279;-53
2023/02/19 00:59:50;;;;;;;1.63;1.52;;;20.60;81.90;;;;;;5087709;28;20280;-53
2023/02/19 01:02:17;;;;;;;1.60;1.50;;;20.50;81.90;;;;;;5097589;28;20204;-47
2023/02/19 01:04:44;;;;;;;1.23;1.13;;;20.50;81.90;;;;;;5095542;28;20218;-52
2023/02/19 01:07:12;;;;;;;1.70;1.60;;;20.50;81.90;;;;;;5101788;28;20217;-52
2023/02/19 01:09:39;;;;;;;1.83;1.73;;;20.50;82.70;;;;;;5078316;28;20284;-48
2023/02/19 01:12:06;;;;;;;1.77;1.45;;;20.50;81.90;;;;;;5098815;28;20680;-48
2023/02/19 01:14:33;;;;;;;1.73;1.63;;;20.50;81.90;;;;;;5102921;28;20216;-49
2023/02/19 01:17:00;;;;;;;1.80;1.70;;;20.50;81.90;;;;;;5092058;28;20195;-48
2023/02/19 01:19:26;;;;;;;1.80;1.70;;;20.50;81.90;;;;;;5093246;28;20637;-49
2023/02/19 01:21:53;;;;;;;1.67;1.42;;;20.50;82.00;;;;;;5099952;28;20221;-47
2023/02/19 01:24:21;;;;;;;1.38;1.27;;;20.40;81.90;;;;;;5090829;28;20202;-48
2023/02/19 01:26:48;;;;;;;1.40;1.30;;;20.40;81.90;;;;;;5090332;28;20222;-50
2023/02/19 01:29:15;;;;;;;1.90;1.80;;;20.40;81.90;;;;;;5097414;27;20196;-52
2023/02/19 01:31:41;;;;;;;1.63;1.52;;;20.40;81.90;;;;;;5097148;28;20554;-49
2023/02/19 01:34:10;;;;;;;1.58;1.48;;;20.40;82.00;;;;;;5084054;28;20448;-48
2023/02/19 01:36:37;;;;;;;1.50;1.40;;;20.40;81.90;;;;;;5091769;28;20721;-52
2023/02/19 01:39:06;;;;;;;1.75;1.65;;;20.40;82.00;;;;;;5100690;28;20198;-49
2023/02/19 01:41:38;;;;;;;1.92;1.58;;;20.40;81.90;;;;;;5096251;28;20193;-49
2023/02/19 01:44:07;;;;;;;1.77;1.67;;;20.40;82.00;;;;;;5102722;28;20194;-52
2023/02/19 01:46:35;;;;;;;1.70;1.50;;;20.40;82.00;;;;;;5101718;28;20221;-48
2023/02/19 01:49:07;;;;;;;1.50;1.40;;;20.40;82.00;;;;;;5099058;28;20197;-49
2023/02/19 01:51:36;;;;;;;1.58;1.48;;;20.40;82.00;;;;;;5091719;28;20199;-51
2023/02/19 01:54:05;;;;;;;1.77;1.67;;;20.30;81.90;;;;;;5082667;28;20198;-48
2023/02/19 01:56:37;;;;;;;2.42;1.67;;;20.30;81.90;;;;;;5084938;28;20599;-51
2023/02/19 01:59:05;;;;;;;1.70;1.60;;;20.30;82.80;;;;;;5085466;28;20203;-51
2023/02/19 02:01:32;;;;;;;1.88;1.77;;;20.30;81.90;;;;;;5081248;28;20198;-48
2023/02/19 02:03:59;;;;;;;1.40;1.30;;;20.30;82.00;;;;;;5080070;28;20226;-47
2023/02/19 02:06:30;;;;;;;1.83;1.70;;;20.30;82.00;;;;;;5091644;28;20712;-47
2023/02/19 02:11:47;;;;;;;1.52;1.42;;;20.30;82.00;;;;;;5101699;28;20200;-47
2023/02/19 02:14:14;;;;;;;1.40;1.30;;;20.30;82.00;;;;;;5099201;28;20197;-48
2023/02/19 02:16:50;;;;;;;1.50;1.40;;;20.30;82.00;;;;;;5094795;28;20198;-50
2023/02/19 02:19:31;;;;;;;1.73;1.63;;;20.30;82.00;;;;;;5103336;28;20197;-51
2023/02/19 02:22:06;;;;;;;1.65;1.55;;;20.20;81.90;;;;;;5104258;28;20221;-51
2023/02/19 02:25:01;;;;;;;1.60;1.50;;;20.20;81.90;;;;;;5098360;28;20224;-48
2023/02/19 02:27:42;;;;;;;1.80;1.70;;;20.20;81.90;;;;;;5099254;28;20612;-48
2023/02/19 02:30:28;;;;;;;1.58;1.48;;;20.20;82.00;;;;;;5085454;28;20221;-53
2023/02/19 02:33:01;;;;;;;1.73;1.60;;;20.20;81.90;;;;;;5090053;28;20289;-51
2023/02/19 02:35:33;;;;;;;2.05;1.85;;;20.20;82.00;;;;;;5087321;28;20206;-48
2023/02/19 02:38:04;;;;;;;1.55;1.45;;;20.20;82.00;;;;;;5102796;28;20544;-50
2023/02/19 02:40:31;;;;;;;1.67;1.58;;;20.20;82.00;;;;;;5095509;28;20198;-48
2023/02/19 02:42:58;;;;;;;2.10;1.50;;;20.10;81.90;;;;;;5096665;28;20190;-49
2023/02/19 02:45:35;;;;;;;3.42;1.95;;;20.10;81.80;;;;;;5100852;28;20224;-48
2023/02/19 02:48:08;;;;;;;1.50;1.40;;;20.10;81.90;;;;;;5101183;28;20191;-52
2023/02/19 02:50:40;;;;;;;1.85;1.75;;;20.10;81.80;;;;;;5088297;28;20555;-51
2023/02/19 02:55:56;;;;;;;1.90;1.80;;;20.10;81.90;;;;;;5085753;28;20202;-55
2023/02/19 02:58:25;;;;;;;2.65;1.73;;;20.10;81.90;;;;;;5097826;28;20205;-51
2023/02/19 03:03:47;;;;;;;1.50;1.40;;;20.10;81.90;;;;;;5111113;28;20223;-55
2023/02/19 03:06:17;;;;;;;1.45;1.35;;;20.10;81.90;;;;;;5092994;28;20221;-53
2023/02/19 03:08:49;;;;;;;1.80;1.70;;;20.10;81.90;;;;;;5084573;28;20194;-53
2023/02/19 03:19:45;;;;;;;1.50;1.40;;;20.10;82.00;;;;;;5086794;28;20205;-53
2023/02/19 03:22:16;;;;;;;1.80;1.70;;;20.10;82.00;;;;;;5074108;28;20593;-54
2023/02/19 03:27:36;;;;;;;1.73;1.63;;;20.00;81.90;;;;;;5098355;28;20286;-55
2023/02/19 03:30:10;;;;;;;1.73;1.63;;;20.00;81.80;;;;;;5091179;28;20303;-49
2023/02/19 03:32:44;;;;;;;1.85;1.75;;;20.00;81.80;;;;;;5093365;28;20194;-54
2023/02/19 03:35:14;;;;;;;1.85;1.75;;;20.00;81.90;;;;;;5083034;28;20205;-51
2023/02/19 03:37:45;;;;;;;1.70;1.60;;;20.00;81.80;;;;;;5112313;28;20224;-51
2023/02/19 03:40:13;;;;;;;1.38;1.27;;;20.00;81.80;;;;;;5085696;28;20218;-52
2023/02/19 03:42:48;;;;;;;1.70;1.60;;;20.00;81.80;;;;;;5103111;28;20194;-50
2023/02/19 03:45:27;;;;;;;1.63;1.52;;;20.00;81.80;;;;;;5095546;28;20208;-52
2023/02/19 03:48:05;;;;;;;1.70;1.60;;;20.00;81.80;;;;;;5093928;28;20187;-49
2023/02/19 03:50:42;;;;;;;1.83;1.73;;;20.00;81.90;;;;;;5096316;28;20535;-48
2023/02/19 03:53:17;;;;;;;1.63;1.52;;;20.00;81.90;;;;;;5081528;28;20189;-51
2023/02/19 03:55:49;;;;;;;1.50;1.40;;;20.00;81.90;;;;;;5087479;28;20197;-53
2023/02/19 03:58:22;;;;;;;1.50;1.40;;;20.00;81.80;;;;;;5078734;28;20224;-49
2023/02/19 04:00:55;;;;;;;2.65;1.77;;;20.00;81.80;;;;;;5089588;28;20198;-53
2023/02/19 04:03:29;;;;;;;2.00;1.60;;;20.00;81.80;;;;;;5102428;28;20208;-51
2023/02/19 04:06:01;;;;;;;1.70;1.60;;;20.00;81.80;;;;;;5090170;28;20312;-49
2023/02/19 04:08:29;;;;;;;1.77;1.67;;;20.00;81.80;;;;;;5087353;28;20194;-49
2023/02/19 04:10:59;;;;;;;2.15;1.52;;;20.00;81.80;;;;;;5085384;28;20555;-50
2023/02/19 04:13:30;;;;;;;1.70;1.60;;;20.00;81.70;;;;;;5089002;28;20234;-52
2023/02/19 04:16:01;;;;;;;1.83;1.73;;;20.00;81.70;;;;;;5084538;28;20194;-49
2023/02/19 04:18:34;;;;;;;1.90;1.80;;;19.90;81.70;;;;;;5081057;28;20214;-54
2023/02/19 04:21:03;;;;;;;1.88;1.67;;;19.90;81.70;;;;;;5091225;28;20201;-51
2023/02/19 04:23:33;;;;;;;1.50;1.40;;;19.90;81.70;;;;;;5097179;28;20209;-50
2023/02/19 04:26:01;;;;;;;1.65;1.55;;;19.90;81.60;;;;;;5085712;28;20222;-52
2023/02/19 04:28:29;;;;;;;2.08;1.98;;;19.90;81.60;;;;;;5087135;28;20194;-49
2023/02/19 04:30:55;;;;;;;2.75;1.70;;;19.90;81.60;;;;;;5090631;28;20204;-48
2023/02/19 04:33:22;;;;;;;1.65;1.55;;;19.90;81.60;;;;;;5088217;28;20679;-49
2023/02/19 04:35:50;;;;;;;2.00;1.73;;;19.90;81.60;;;;;;5082796;28;20213;-51
2023/02/19 04:38:17;;;;;;;1.30;1.20;;;19.90;81.70;;;;;;5083358;28;20195;-51
2023/02/19 04:40:43;;;;;;;2.08;1.98;;;19.90;81.70;;;;;;5080116;28;20198;-51
2023/02/19 04:43:10;;;;;;;1.83;1.73;;;19.90;81.60;;;;;;5092152;28;20198;-49
2023/02/19 04:45:37;;;;;;;1.55;1.45;;;19.90;81.70;;;;;;5094071;28;20190;-48
2023/02/19 04:48:04;;;;;;;1.80;1.70;;;19.90;81.70;;;;;;5105279;28;20712;-47
2023/02/19 04:50:31;;;;;;;1.80;1.70;;;19.90;81.60;;;;;;5085455;28;20563;-51
2023/02/19 04:52:59;;;;;;;1.75;1.65;;;19.90;81.60;;;;;;5099784;28;20201;-51
2023/02/19 04:55:25;;;;;;;1.70;1.60;;;19.90;82.50;;;;;;5095636;28;20197;-53
2023/02/19 04:57:52;;;;;;;1.52;1.42;;;19.90;81.70;;;;;;5110619;28;20201;-48
2023/02/19 05:00:19;;;;;;;1.73;1.63;;;19.90;81.70;;;;;;5091277;28;20204;-48
2023/02/19 05:02:46;;;;;;;2.10;1.90;;;19.80;81.60;;;;;;5098373;28;20198;-48
2023/02/19 05:05:13;;;;;;;1.60;1.50;;;19.80;81.60;;;;;;5109123;28;20257;-48
2023/02/19 05:07:39;;;;;;;1.85;1.60;;;19.80;81.60;;;;;;5107640;28;20221;-48
2023/02/19 05:10:08;;;;;;;1.88;1.77;;;19.80;81.60;;;;;;5086105;28;20205;-47
2023/02/19 05:12:35;;;;;;;1.85;1.75;;;19.80;81.60;;;;;;5098612;28;20190;-54
2023/02/19 05:15:01;;;;;;;1.63;1.50;;;19.80;81.60;;;;;;5097674;28;20197;-52
2023/02/19 05:17:28;;;;;;;2.20;1.85;;;19.80;81.60;;;;;;5099855;28;20240;-50
2023/02/19 05:19:55;;;;;;;1.63;1.52;;;19.80;81.60;;;;;;5101046;28;20201;-54
2023/02/19 05:22:21;;;;;;;1.70;1.60;;;19.80;81.60;;;;;;5099465;28;20571;-50
2023/02/19 05:24:48;;;;;;;2.40;2.20;;;19.80;81.60;;;;;;5088500;28;20206;-53
2023/02/19 05:27:16;;;;;;;1.92;1.83;;;19.80;81.60;;;;;;5110491;28;20213;-54
2023/02/19 05:29:43;;;;;;;1.65;1.55;;;19.80;81.60;;;;;;5082213;28;20211;-58
2023/02/19 05:32:10;;;;;;;1.60;1.50;;;19.80;81.60;;;;;;5097895;28;20584;-49
2023/02/19 05:34:37;;;;;;;2.05;1.95;;;19.80;81.60;;;;;;5079907;28;20194;-50
2023/02/19 05:37:03;;;;;;;1.52;1.42;;;19.80;81.60;;;;;;5093548;28;20220;-52
2023/02/19 05:39:30;;;;;;;1.55;1.45;;;19.80;81.60;;;;;;5080369;28;20202;-51
2023/02/19 05:41:57;;;;;;;1.40;1.30;;;19.80;81.60;;;;;;5090076;28;20215;-50
2023/02/19 05:44:25;;;;;;;1.90;1.80;;;19.80;81.60;;;;;;5095792;28;20198;-49
2023/02/19 05:46:52;;;;;;;1.80;1.70;;;19.80;81.60;;;;;;5098248;28;20224;-51
2023/02/19 05:49:19;;;;;;;1.85;1.75;;;19.70;81.50;;;;;;5095846;28;20197;-52
2023/02/19 05:51:45;;;;;;;1.95;1.80;;;19.70;81.50;;;;;;5111263;28;20201;-52
2023/02/19 05:54:12;;;;;;;1.77;1.67;;;19.80;81.60;;;;;;5092093;28;20582;-54
2023/02/19 05:56:41;;;;;;;1.60;1.50;;;19.70;81.40;;;;;;5080940;28;20205;-53
2023/02/19 05:59:16;;;;;;;1.70;1.60;;;19.80;81.60;;;;;;5084286;28;20198;-53
2023/02/19 06:01:45;;;;;;;1.65;1.55;;;19.80;81.60;;;;;;5092507;28;20564;-53
2023/02/19 06:04:12;;;;;;;1.75;1.65;;;19.70;81.40;;;;;;5081740;28;20198;-50
2023/02/19 06:06:40;;;;;;;1.80;1.70;;;19.70;81.40;;;;;;5081578;28;20219;-49
2023/02/19 06:09:08;;;;;;;1.85;1.70;;;19.70;81.40;;;;;;5087619;28;20194;-49
2023/02/19 06:11:35;;;;;;;1.90;1.75;;;19.70;81.40;;;;;;5093808;28;20248;-52
2023/02/19 06:14:02;;;;;;;1.70;1.60;;;19.70;81.40;;;;;;5098756;28;20567;-52
2023/02/19 06:16:31;;;;;;;1.90;1.80;;;19.70;81.40;;;;;;5106665;28;20201;-51
2023/02/19 06:18:59;;;;;;;1.65;1.55;;;19.70;81.30;;;;;;5104142;28;20621;-50
2023/02/19 06:21:25;;;;;;;1.85;1.73;;;19.70;81.30;;;;;;5092625;28;20603;-51
2023/02/19 06:23:52;;;;;;;1.63;1.50;;;19.70;81.30;;;;;;5094819;28;20210;-48
2023/02/19 06:26:20;;;;;;;2.00;1.80;;;19.80;81.40;;;;;;5083343;28;20213;-48
2023/02/19 06:28:49;;;;;;;1.70;1.60;;;19.80;81.40;;;;;;5106367;28;20190;-48
2023/02/19 06:31:17;;;;;;;2.05;1.85;;;19.80;81.30;;;;;;5103050;28;20299;-48
2023/02/19 06:33:44;;;;;;;1.92;1.60;;;19.80;81.30;;;;;;5100021;28;20202;-53
2023/02/19 06:36:14;;;;;;;1.70;1.58;;;19.80;81.20;;;;;;5092401;27;20201;-50
2023/02/19 06:38:41;;;;;;;2.10;1.92;;;19.80;81.30;;;;;;5109269;27;20194;-50
2023/02/19 06:41:08;;;;;;;1.63;1.30;;;19.80;81.20;;;;;;5095630;28;20197;-52
2023/02/19 06:43:36;;;;;;;1.50;1.40;;;19.80;81.20;;;;;;5101397;28;20197;-47
2023/02/19 06:46:05;;;;;;;1.60;1.50;;;19.80;81.40;;;;;;5096495;28;20901;-53
2023/02/19 06:48:33;;;;;;;1.42;1.33;;;19.80;81.20;;;;;;5094226;28;20202;-48
2023/02/19 06:51:00;;;;;;;1.52;1.42;;;19.80;81.20;;;;;;5108355;28;20559;-54
2023/02/19 06:53:28;;;;;;;1.65;1.55;;;19.80;81.20;;;;;;5103996;28;20210;-51
2023/02/19 06:55:58;;;;;;;1.90;1.70;;;19.80;81.20;;;;;;5093126;27;20200;-49
2023/02/19 06:58:25;;;;;;;1.52;1.42;;;19.80;81.20;;;;;;5093838;28;20201;-53
2023/02/19 07:00:51;;;;;;;1.50;1.40;;;19.80;81.10;;;;;;5112262;28;20220;-51
2023/02/19 07:03:18;;;;;;;1.80;1.70;;;19.80;81.80;;;;;;5100209;28;20205;-49
2023/02/19 07:05:45;;;;;;;1.73;1.63;;;19.80;81.00;;;;;;5102273;28;20194;-49
2023/02/19 07:08:12;;;;;;;1.55;1.45;;;19.80;81.00;;;;;;5107601;28;20221;-51
2023/02/19 07:10:40;;;;;;;1.63;1.52;;;19.80;81.00;;;;;;5075188;28;20195;-52
2023/02/19 07:13:07;;;;;;;1.70;1.60;;;19.80;81.10;;;;;;5105353;28;20605;-52
2023/02/19 07:15:33;;;;;;;1.40;1.30;;;19.90;81.20;;;;;;5107473;28;20204;-53
2023/02/19 07:18:00;;;;;;;1.50;1.40;;;19.90;81.10;;;;;;5103191;28;20203;-54
2023/02/19 07:20:27;;;;;;;1.40;1.30;;;19.90;81.10;;;;;;5111775;28;20656;-50
2023/02/19 07:22:53;;;;;;;1.60;1.50;;;19.90;81.10;;;;;;5094175;28;20218;-53
2023/02/19 07:25:20;;;;;;;1.73;1.63;;;19.90;81.10;;;;;;5081299;28;20205;-54
2023/02/19 07:27:48;;;;;;;1.45;1.35;;;19.90;81.10;;;;;;5105024;28;20224;-51
2023/02/19 07:30:15;;;;;;;1.50;1.40;;;19.90;81.10;;;;;;5099409;28;20200;-51
2023/02/19 07:32:44;;;;;;;1.55;1.42;;;19.90;81.10;;;;;;5097502;28;20570;-48
2023/02/19 07:35:11;;;;;;;1.38;1.27;;;19.90;81.10;;;;;;5089327;28;20218;-47
2023/02/19 07:37:37;;;;;;;1.40;1.30;;;19.90;81.20;;;;;;5106789;28;20201;-50
2023/02/19 07:40:05;;;;;;;1.50;1.40;;;19.90;81.20;;;;;;5077431;28;20550;-51
2023/02/19 07:42:32;;;;;;;1.23;1.13;;;19.90;81.20;;;;;;5093822;28;20201;-49
2023/02/19 07:45:00;;;;;;;1.30;1.20;;;19.90;81.10;;;;;;5097320;28;20208;-49
2023/02/19 07:47:26;;;;;;;2.92;1.38;;;19.90;81.40;;;;;;5093681;28;20222;-50
2023/02/19 07:49:53;;;;;;;1.52;1.42;;;19.90;81.60;;;;;;5090465;28;20591;-50
2023/02/19 07:52:20;;;;;;;1.40;1.30;;;20.00;81.60;;;;;;5085218;28;20285;-51
2023/02/19 07:54:46;;;;;;;1.45;1.35;;;20.00;81.50;;;;;;5073620;28;20217;-51
2023/02/19 07:57:13;;;;;;;5.53;1.30;;;20.00;81.40;;;;;;5081405;28;20212;-52
2023/02/19 07:59:40;;;;;;;1.23;1.10;;;20.00;81.50;;;;;;5086598;28;20229;-52
2023/02/19 08:04:59;;;;;;;2.80;1.45;;;20.10;82.40;;;;;;5073047;28;20544;-52
2023/02/19 08:07:31;;;;;;;3.08;1.52;;;20.10;82.00;;;;;;5088029;28;20229;-48
2023/02/19 08:13:18;;;;;;;17.40;1.60;;;20.10;82.00;;;;;;5078551;28;20199;-48
2023/02/19 08:15:39;;;;;;;2.00;1.25;;;20.10;82.10;;;;;;5089725;28;20680;-51
2023/02/19 08:18:07;;;;;;;1.35;1.25;;;20.10;82.20;;;;;;5082187;28;20203;-50
2023/02/19 08:20:34;;;;;;;4.53;1.55;;;20.10;82.30;;;;;;5079407;28;20566;-49
2023/02/19 08:23:01;;;;;;;2.47;1.33;;;20.10;82.30;;;;;;5078966;28;20218;-49
2023/02/19 08:25:28;;;;;;;1.75;1.40;;;20.10;82.20;;;;;;5084109;28;20661;-51
2023/02/19 08:27:55;;;;;;;3.15;1.17;;;20.10;82.20;;;;;;5087269;28;20214;-53
2023/02/19 08:30:21;;;;;;;1.50;1.33;;;20.10;82.20;;;;;;5095330;28;20193;-50
2023/02/19 08:32:48;;;;;;;1.33;1.20;;;20.10;82.20;;;;;;5090184;28;20194;-54
2023/02/19 08:35:17;;;;;;;4.80;1.30;;;20.10;82.30;;;;;;5085073;28;20662;-51
2023/02/19 08:37:43;;;;;;;1.20;1.10;;;20.10;82.20;;;;;;5080564;28;20201;-56
2023/02/19 08:40:11;;;;;;;1.73;1.48;;;20.10;82.20;;;;;;5080189;28;20194;-49
2023/02/19 08:42:38;;;;;;;1.48;1.08;;;20.10;82.10;;;;;;5098135;28;20197;-53
2023/02/19 08:45:05;;;;;;;2.08;1.30;;;20.10;82.10;;;;;;5093340;28;20191;-55
2023/02/19 08:47:34;;;;;;;4.15;1.33;;;20.10;82.10;;;;;;5093251;28;20589;-54
2023/02/19 08:50:03;;;;;;;3.08;1.20;;;20.10;82.10;;;;;;5083427;28;20610;-53
2023/02/19 08:52:32;;;;;;;1.65;1.55;;;20.10;82.10;;;;;;5096431;28;20199;-52
2023/02/19 08:54:58;;;;;;;1.23;1.13;;;20.10;82.00;;;;;;5092837;28;20659;-52
2023/02/19 08:57:27;;;;;;;2.15;1.23;;;20.20;82.20;;;;;;5096237;28;20225;-53
2023/02/19 08:59:54;;;;;;;1.40;1.15;;;20.10;82.00;;;;;;5086973;28;20687;-49
2023/02/19 09:02:21;;;;;;;1.30;1.20;;;20.20;82.10;;;;;;5106310;28;20193;-53
2023/02/19 09:04:48;;;;;;;2.60;1.15;;;20.20;82.10;;;;;;5098882;28;20194;-52
2023/02/19 09:07:18;;;;;;;3.63;1.20;;;20.10;81.90;;;;;;5100659;28;20240;-50
2023/02/19 09:09:46;;;;;;;1.48;1.20;;;20.20;82.00;;;;;;5087231;28;20605;-51
2023/02/19 09:12:13;;;;;;;1.40;1.30;;;20.20;82.00;;;;;;5085037;28;20194;-47
2023/02/19 09:14:40;;;;;;;1.42;1.10;;;20.20;82.00;;;;;;5097687;28;20193;-49
2023/02/19 09:17:08;;;;;;;1.35;1.20;;;20.20;82.00;;;;;;5098892;28;20570;-48
2023/02/19 09:19:35;;;;;;;1.30;1.20;;;20.20;82.00;;;;;;5089032;28;20211;-48
2023/02/19 09:22:03;;;;;;;1.08;0.98;;;20.20;82.00;;;;;;5084898;28;20232;-50
2023/02/19 09:24:31;;;;;;;1.52;1.10;;;20.20;82.00;;;;;;5092479;28;20225;-52
2023/02/19 09:26:59;;;;;;;1.17;1.08;;;20.20;81.90;;;;;;5107767;28;20193;-51
2023/02/19 09:29:27;;;;;;;1.75;1.27;;;20.20;81.90;;;;;;5098786;28;20201;-55
2023/02/19 09:31:56;;;;;;;1.10;0.90;;;20.20;81.90;;;;;;5111026;28;20552;-54
2023/02/19 09:34:23;;;;;;;1.10;1.00;;;20.20;81.90;;;;;;5100110;28;20198;-54
2023/02/19 09:36:51;;;;;;;1.25;1.15;;;20.20;81.90;;;;;;5109885;28;20220;-55
2023/02/19 09:39:18;;;;;;;1.48;1.38;;;20.20;81.90;;;;;;5088679;28;20213;-52
2023/02/19 09:41:48;;;;;;;1.05;0.95;;;20.20;81.90;;;;;;5098477;28;20193;-50
2023/02/19 09:44:23;;;;;;;1.95;1.10;;;20.20;81.90;;;;;;5091126;28;20214;-54
2023/02/19 09:46:51;;;;;;;1.35;1.20;;;20.30;82.10;;;;;;5084757;28;20614;-58
2023/02/19 09:49:24;;;;;;;1.35;1.25;;;20.30;81.80;;;;;;5080054;28;20261;-56
2023/02/19 09:51:54;;;;;;;2.17;1.00;;;20.40;81.90;;;;;;5089784;28;20201;-59
2023/02/19 09:54:24;;;;;;;1.23;1.13;;;20.40;81.90;;;;;;5086501;28;20203;-62
2023/02/19 09:56:52;;;;;;;1.10;0.90;;;20.40;82.00;;;;;;5084465;28;20433;-61
2023/02/19 09:59:24;;;;;;;1.02;0.90;;;20.50;82.00;;;;;;5080573;28;20210;-52
2023/02/19 10:02:01;;;;;;;1.20;1.10;;;20.50;82.00;;;;;;5079359;28;20195;-52
2023/02/19 10:04:27;;;;;;;1.27;1.07;;;20.50;82.10;;;;;;5079624;28;20209;-52
2023/02/19 10:06:57;;;;;;;4.45;1.00;;;20.50;82.00;;;;;;5086418;28;20463;-62
2023/02/19 10:09:27;;;;;;;1.42;1.30;;;20.60;82.30;;;;;;5085976;28;20288;-54
2023/02/19 10:11:57;;;;;;;1.50;1.15;;;20.60;82.30;;;;;;5094682;28;20194;-64
2023/02/19 10:14:31;;;;;;;1.30;1.20;;;20.60;82.10;;;;;;5090745;28;20566;-59
2023/02/19 10:17:01;;;;;;;1.10;1.00;;;20.60;82.10;;;;;;5077623;28;20453;-59
2023/02/19 10:19:27;;;;;;;1.20;0.90;;;20.60;82.10;;;;;;5087898;28;20468;-62
2023/02/19 10:21:55;;;;;;;1.10;0.93;;;20.60;82.20;;;;;;5082944;28;20473;-60
2023/02/19 10:24:26;;;;;;;1.70;0.90;;;20.60;82.20;;;;;;5082394;28;20809;-61
2023/02/19 10:26:54;;;;;;;1.10;1.00;;;20.60;82.30;;;;;;5084168;28;20955;-51
2023/02/19 10:29:23;;;;;;;1.20;1.10;;;20.70;82.50;;;;;;5088309;28;20487;-59
2023/02/19 10:32:17;;;;;;;1.03;0.80;;;20.70;82.50;;;;;;5099300;28;20517;-55
2023/02/19 10:34:44;;;;;;;1.00;0.87;;;20.70;82.50;;;;;;5091847;28;20814;-61
2023/02/19 10:37:15;;;;;;;0.93;0.83;;;20.70;82.60;;;;;;5081456;28;20456;-64
2023/02/19 10:39:45;;;;;;;1.40;1.00;;;20.70;82.60;;;;;;5088370;28;20542;-64
2023/02/19 10:42:17;;;;;;;1.13;1.03;;;20.70;82.70;;;;;;5076888;28;20203;-62
2023/02/19 10:44:47;;;;;;;1.17;1.03;;;20.70;82.90;;;;;;5078593;28;20461;-60
2023/02/19 10:47:21;;;;;;;0.90;0.80;;;20.70;83.10;;;;;;5075348;28;20812;-54
2023/02/19 10:49:49;;;;;;;1.13;0.93;;;20.70;83.10;;;;;;5085702;28;20443;-61
2023/02/19 10:52:20;;;;;;;1.10;1.00;;;20.80;83.20;;;;;;5094601;28;20459;-63
2023/02/19 10:54:51;;;;;;;1.10;0.90;;;20.80;83.20;;;;;;5083335;28;20498;-54
2023/02/19 10:57:33;;;;;;;1.80;1.20;;;20.80;83.10;;;;;;5102748;28;20452;-58
2023/02/19 11:00:02;;;;;;;1.17;1.07;;;20.90;83.20;;;;;;5086631;28;20924;-60
2023/02/19 11:02:31;;;;;;;1.10;1.00;;;20.90;83.20;;;;;;5088793;28;20455;-54
2023/02/19 11:05:24;;;;;;;0.90;0.80;;;20.90;83.10;;;;;;5099597;28;20955;-57
2023/02/19 11:07:54;;;;;;;1.40;1.20;;;20.90;83.20;;;;;;5075768;28;20516;-54
2023/02/19 11:10:28;;;;;;;3.43;1.10;;;20.90;84.30;;;;;;5077040;28;20560;-57
2023/02/19 11:12:57;;;;;;;1.10;0.87;;;20.90;83.50;;;;;;5080881;28;21025;-54
2023/02/19 11:15:28;;;;;;;3.23;0.90;;;20.90;83.50;;;;;;5079736;28;20445;-56
2023/02/19 11:17:58;;;;;;;1.00;0.80;;;20.90;83.50;;;;;;5069093;28;20467;-66
2023/02/19 11:20:26;;;;;;;1.60;0.93;;;21.00;83.50;;;;;;5076978;28;20453;-67
2023/02/19 11:22:58;;;;;;;1.10;0.93;;;21.00;83.50;;;;;;5077726;28;20491;-68
2023/02/19 11:25:25;;;;;;;1.27;0.90;;;21.00;83.50;;;;;;5073480;28;20455;-57
2023/02/19 11:27:57;;;;;;;1.53;1.10;;;21.00;83.60;;;;;;5076809;28;20477;-54
2023/02/19 11:30:34;;;;;;;2.10;1.00;;;20.90;84.00;;;;;;5073508;28;20459;-57
2023/02/19 11:33:35;;;;;;;1.43;1.00;;;20.90;84.90;;;;;;5069454;28;20986;-53
2023/02/19 11:36:21;;;;;;;1.30;1.20;;;20.80;84.00;;;;;;5072202;28;20456;-52
2023/02/19 11:38:48;;;;;;;1.17;1.07;;;20.80;83.90;;;;;;5070479;28;20470;-61
2023/02/19 11:41:20;;;;;;;1.37;0.97;;;20.80;83.90;;;;;;5078870;28;20459;-50
2023/02/19 11:44:16;;;;;;;0.90;0.80;;;20.80;83.90;;;;;;5080991;28;20465;-55
2023/02/19 11:46:54;;;;;;;1.20;1.00;;;20.80;83.80;;;;;;5074486;28;20463;-55
2023/02/19 11:49:35;;;;;;;1.10;1.00;;;20.80;83.80;;;;;;5075994;28;20484;-55
2023/02/19 11:52:17;;;;;;;1.00;0.83;;;20.80;83.80;;;;;;5071138;28;20809;-51
2023/02/19 11:54:49;;;;;;;1.70;0.90;;;20.80;83.80;;;;;;5070412;28;20468;-57
2023/02/19 11:57:32;;;;;;;1.40;1.00;;;20.80;83.70;;;;;;5078383;28;20456;-50
2023/02/19 12:00:14;;;;;;;1.07;0.97;;;20.90;83.60;;;;;;5080334;28;20456;-51
2023/02/19 12:02:56;;;;;;;1.97;0.90;;;20.90;83.50;;;;;;5089293;28;20824;-53
2023/02/19 12:05:43;;;;;;;0.93;0.75;;;20.90;83.70;;;;;;5070233;28;20445;-54
2023/02/19 12:08:36;;;;;;;1.33;0.90;;;20.90;83.70;;;;;;5085904;28;20682;-52
2023/02/19 12:11:20;;;;;;;1.30;1.10;;;20.80;83.60;;;;;;5073773;28;20468;-54
2023/02/19 12:14:11;;;;;;;1.30;1.10;;;20.80;83.60;;;;;;5075609;28;20594;-49
2023/02/19 12:16:43;;;;;;;1.53;1.00;;;20.80;83.60;;;;;;5075428;28;20469;-51
2023/02/19 12:19:25;;;;;;;1.08;0.90;;;20.80;83.70;;;;;;5074449;28;20460;-53
2023/02/19 12:22:15;;;;;;;3.53;0.83;;;20.80;83.90;;;;;;5072957;28;20228;-58
2023/02/19 12:25:04;;;;;;;2.75;1.15;;;20.80;84.50;;;;;;5074789;28;20460;-59
2023/02/19 12:27:41;;;;;;;3.53;1.40;;;20.90;84.30;;;;;;5075882;28;20293;-58
2023/02/19 12:30:38;;;;;;;3.00;1.03;;;20.90;84.30;;;;;;5076050;28;20495;-60
2023/02/19 12:33:30;;;;;;;1.20;1.03;;;20.90;84.50;;;;;;5076082;28;20460;-60
2023/02/19 12:36:05;;;;;;;1.20;1.00;;;21.00;84.70;;;;;;5073562;28;20456;-59
2023/02/19 12:38:39;;;;;;;1.00;0.70;;;21.00;84.90;;;;;;5077496;28;20465;-63
2023/02/19 12:41:19;;;;;;;1.20;1.10;;;21.10;85.00;;;;;;5075463;28;20460;-59
2023/02/19 12:43:52;;;;;;;1.30;1.00;;;21.10;85.10;;;;;;5073365;28;20868;-59
2023/02/19 12:46:25;;;;;;;1.20;1.10;;;21.10;85.20;;;;;;5075268;28;20464;-55
2023/02/19 12:48:58;;;;;;;1.27;0.90;;;21.10;85.20;;;;;;5073880;28;20484;-58
2023/02/19 12:51:28;;;;;;;2.40;1.30;;;21.10;85.20;;;;;;5075681;28;20449;-57
2023/02/19 12:53:59;;;;;;;1.37;0.93;;;21.10;85.80;;;;;;5077548;28;20457;-58
2023/02/19 12:56:29;;;;;;;1.67;0.97;;;21.10;86.20;;;;;;5070409;28;20459;-58
2023/02/19 12:59:00;;;;;;;4.33;1.70;;;21.10;86.10;;;;;;5080712;28;20449;-57
2023/02/19 13:01:32;;;;;;;3.07;1.77;;;21.10;85.90;;;;;;5074938;28;20451;-63
2023/02/19 13:04:14;;;;;;;1.60;1.10;;;21.10;86.20;;;;;;5078509;28;20975;-55
2023/02/19 13:06:46;;;;;;;1.20;0.90;;;21.10;86.00;;;;;;5069825;28;20476;-52
2023/02/19 13:09:20;;;;;;;2.53;1.20;;;21.10;86.10;;;;;;5069813;28;20484;-58
2023/02/19 13:11:50;;;;;;;1.50;1.00;;;21.10;86.30;;;;;;5080768;28;20449;-58
2023/02/19 13:14:24;;;;;;;1.83;1.00;;;21.10;86.10;;;;;;5071190;28;20805;-63
2023/02/19 13:16:57;;;;;;;3.20;1.10;;;21.20;86.20;;;;;;5082757;28;20440;-60
2023/02/19 13:19:24;;;;;;;1.57;0.93;;;21.20;86.00;;;;;;5086072;28;20460;-61
2023/02/19 13:24:45;;;;;;;1.00;0.90;;;21.20;86.00;;;;;;5075810;28;20496;-58
2023/02/19 13:28:02;;;;;;;2.43;1.20;;;21.20;86.20;;;;;;5070616;28;20471;-59
2023/02/19 13:30:40;;;;;;;1.63;0.80;;;21.20;86.20;;;;;;5070759;28;20483;-55
2023/02/19 13:33:20;;;;;;;1.70;1.40;;;21.20;85.00;;;;;;5086221;28;20459;-57